Time;durP1;ratioP1;P1;durP2;ratioP2;P2;SDS_P1;SDS_P2;PMS_P1;PMS_P2;Temp;Humidity;BMP_temperature;BMP_pressure;BME280_temperature;BME280_humidity;BME280_pressure;Samples;Min_cycle;Max_cycle;Signal;HPM_P1;HPM_P2
2022/10/30 00:00:38;;;;;;;4.30;1.92;;;21.10;55.50;;;;;;5046473;28;45209;-72
2022/10/30 00:03:04;;;;;;;4.65;2.45;;;21.10;55.50;;;;;;5046505;28;45186;-71
2022/10/30 00:05:31;;;;;;;3.60;2.38;;;21.10;55.50;;;;;;5049243;28;46516;-71
2022/10/30 00:07:58;;;;;;;6.78;3.10;;;21.10;55.50;;;;;;5048938;28;45443;-72
2022/10/30 00:10:25;;;;;;;3.80;2.10;;;21.10;55.50;;;;;;5049484;28;45219;-72
2022/10/30 00:12:52;;;;;;;3.95;2.47;;;21.10;55.60;;;;;;5049971;28;45258;-72
2022/10/30 00:15:20;;;;;;;2.55;2.00;;;21.10;55.60;;;;;;5049595;28;46426;-72
2022/10/30 00:17:47;;;;;;;3.65;2.30;;;21.10;55.60;;;;;;5049549;28;45322;-72
2022/10/30 00:20:14;;;;;;;4.22;2.03;;;21.10;55.60;;;;;;5049895;28;45314;-72
2022/10/30 00:22:41;;;;;;;3.78;2.05;;;21.10;55.60;;;;;;5049818;28;45311;-72
2022/10/30 00:25:08;;;;;;;3.55;2.10;;;21.10;56.20;;;;;;5049151;28;45540;-71
2022/10/30 00:27:35;;;;;;;4.45;2.13;;;21.10;55.60;;;;;;5049536;28;45348;-72
2022/10/30 00:30:02;;;;;;;3.42;2.05;;;21.00;55.60;;;;;;5049435;28;45391;-72
2022/10/30 00:32:30;;;;;;;5.88;2.40;;;21.00;55.50;;;;;;5049793;28;45355;-72
2022/10/30 00:34:57;;;;;;;3.70;2.30;;;21.00;55.50;;;;;;5049476;28;45215;-72
2022/10/30 00:37:24;;;;;;;3.17;2.05;;;21.00;55.40;;;;;;5049168;28;45185;-72
2022/10/30 00:39:51;;;;;;;4.93;2.50;;;21.00;55.50;;;;;;5049482;28;45202;-72
2022/10/30 00:42:18;;;;;;;5.35;2.28;;;21.00;55.60;;;;;;5049634;28;45293;-72
2022/10/30 00:44:47;;;;;;;3.20;2.22;;;21.00;55.50;;;;;;5049070;28;46401;-71
2022/10/30 00:47:18;;;;;;;4.72;1.92;;;21.00;56.10;;;;;;5049115;28;45248;-72
2022/10/30 00:49:51;;;;;;;3.22;1.95;;;21.00;55.50;;;;;;5049160;28;45312;-72
2022/10/30 00:52:18;;;;;;;4.63;1.80;;;21.00;55.50;;;;;;5049334;28;45265;-72
2022/10/30 00:54:45;;;;;;;3.47;2.13;;;21.00;55.50;;;;;;5049066;28;47341;-72
2022/10/30 00:57:12;;;;;;;2.95;1.95;;;21.00;55.50;;;;;;5048404;28;45294;-72
2022/10/30 00:59:39;;;;;;;2.80;1.95;;;21.00;55.50;;;;;;5049242;28;45220;-72
2022/10/30 01:02:05;;;;;;;2.95;1.98;;;21.00;55.50;;;;;;5049373;28;45264;-72
2022/10/30 01:04:33;;;;;;;3.33;2.30;;;21.00;55.50;;;;;;5048830;28;47345;-72
2022/10/30 01:07:05;;;;;;;3.30;1.95;;;20.90;55.50;;;;;;5048710;28;45298;-73
2022/10/30 01:09:32;;;;;;;2.90;1.90;;;20.90;55.50;;;;;;5049114;28;45538;-72
2022/10/30 01:11:59;;;;;;;2.50;1.88;;;20.90;55.50;;;;;;5048874;28;45426;-72
2022/10/30 01:14:26;;;;;;;2.95;1.83;;;20.90;55.50;;;;;;5048659;28;45300;-72
2022/10/30 01:17:02;;;;;;;3.83;2.10;;;20.90;55.50;;;;;;5047688;28;45259;-72
2022/10/30 01:19:32;;;;;;;2.70;2.00;;;20.90;55.60;;;;;;5049081;28;45289;-71
2022/10/30 01:22:07;;;;;;;2.30;1.70;;;20.90;55.50;;;;;;5049212;28;45395;-72
2022/10/30 01:24:42;;;;;;;3.10;1.80;;;20.90;55.60;;;;;;5048820;28;46619;-72
2022/10/30 01:27:16;;;;;;;3.80;2.30;;;20.90;55.60;;;;;;5048483;28;45435;-72
2022/10/30 01:29:48;;;;;;;2.50;1.98;;;20.90;55.60;;;;;;5048736;28;45291;-72
2022/10/30 01:32:22;;;;;;;4.88;2.00;;;20.80;55.50;;;;;;5048626;28;45205;-72
2022/10/30 01:34:54;;;;;;;3.17;2.10;;;20.80;56.20;;;;;;5048096;28;46613;-71
2022/10/30 01:37:29;;;;;;;2.95;1.95;;;20.80;55.60;;;;;;5048440;28;45316;-72
2022/10/30 01:39:56;;;;;;;2.60;2.00;;;20.80;55.60;;;;;;5048388;28;45377;-72
2022/10/30 01:42:48;;;;;;;4.28;2.25;;;20.80;55.60;;;;;;5048960;28;45178;-72
2022/10/30 01:45:18;;;;;;;3.03;1.85;;;20.70;55.70;;;;;;5048227;28;46557;-72
2022/10/30 01:47:50;;;;;;;2.67;2.10;;;20.70;55.70;;;;;;5048065;28;45241;-72
2022/10/30 01:50:21;;;;;;;3.80;2.30;;;20.70;55.60;;;;;;5048430;28;45297;-72
2022/10/30 01:52:54;;;;;;;3.42;2.10;;;20.70;55.80;;;;;;5048391;28;45307;-72
2022/10/30 01:55:29;;;;;;;4.05;1.88;;;20.70;55.80;;;;;;5047957;28;46609;-73
2022/10/30 01:57:58;;;;;;;3.97;2.00;;;20.60;55.80;;;;;;5048105;28;45266;-72
2022/10/30 02:00:25;;;;;;;3.47;2.10;;;20.60;55.90;;;;;;5048194;28;45288;-72
2022/10/30 02:02:52;;;;;;;3.08;2.15;;;20.60;55.80;;;;;;5048207;28;45392;-71
2022/10/30 02:05:21;;;;;;;4.00;1.90;;;20.60;55.90;;;;;;5047656;28;45319;-72
2022/10/30 02:07:48;;;;;;;4.63;2.10;;;20.60;55.90;;;;;;5047607;28;45338;-72
2022/10/30 02:10:16;;;;;;;3.92;2.22;;;20.60;55.90;;;;;;5047866;28;45452;-73
2022/10/30 02:12:43;;;;;;;2.42;1.88;;;20.60;55.90;;;;;;5048182;28;45270;-72
2022/10/30 02:15:10;;;;;;;3.67;2.10;;;20.60;55.90;;;;;;5046996;28;45273;-72
2022/10/30 02:17:39;;;;;;;3.90;1.88;;;20.60;55.90;;;;;;5047564;28;45246;-73
2022/10/30 02:20:07;;;;;;;3.70;1.92;;;20.50;55.80;;;;;;5047951;28;45487;-73
2022/10/30 02:22:35;;;;;;;4.20;2.00;;;20.50;55.80;;;;;;5048037;28;45528;-72
2022/10/30 02:25:02;;;;;;;2.30;2.00;;;20.50;55.90;;;;;;5047455;28;45298;-72
2022/10/30 02:27:29;;;;;;;3.08;2.20;;;20.50;55.90;;;;;;5047196;28;45321;-73
2022/10/30 02:29:56;;;;;;;3.63;2.40;;;20.50;55.90;;;;;;5047545;28;45280;-73
2022/10/30 02:32:23;;;;;;;3.55;2.30;;;20.50;55.80;;;;;;5047632;28;45402;-72
2022/10/30 02:34:50;;;;;;;2.47;2.17;;;20.40;56.00;;;;;;5047133;28;46308;-73
2022/10/30 02:37:17;;;;;;;4.07;2.15;;;20.40;55.90;;;;;;5047704;28;45264;-72
2022/10/30 02:39:45;;;;;;;5.57;2.20;;;20.40;56.00;;;;;;5047409;28;45364;-71
2022/10/30 02:42:12;;;;;;;3.30;2.13;;;20.40;56.60;;;;;;5047769;28;45417;-72
2022/10/30 02:44:39;;;;;;;3.90;2.50;;;20.40;56.10;;;;;;5047161;28;47360;-71
2022/10/30 02:47:05;;;;;;;3.90;2.03;;;20.40;56.10;;;;;;5047465;28;45199;-72
2022/10/30 02:49:32;;;;;;;3.78;2.10;;;20.40;56.00;;;;;;5047581;28;45273;-72
2022/10/30 02:51:59;;;;;;;3.13;2.20;;;20.40;56.10;;;;;;5047880;28;45396;-71
2022/10/30 02:54:26;;;;;;;2.80;2.15;;;20.40;56.00;;;;;;5047354;28;46972;-73
2022/10/30 02:56:54;;;;;;;3.47;2.13;;;20.30;56.10;;;;;;5047496;28;45421;-72
2022/10/30 02:59:21;;;;;;;3.97;2.40;;;20.30;56.10;;;;;;5047765;28;45269;-71
2022/10/30 03:01:48;;;;;;;4.15;1.83;;;20.30;56.10;;;;;;5046881;28;45134;-72
2022/10/30 03:04:15;;;;;;;2.40;2.20;;;20.30;56.10;;;;;;5046966;28;45521;-72
2022/10/30 03:06:42;;;;;;;2.88;1.85;;;20.30;56.10;;;;;;5046742;28;45308;-72
2022/10/30 03:09:09;;;;;;;4.30;1.92;;;20.30;56.10;;;;;;5047319;28;45162;-72
2022/10/30 03:11:36;;;;;;;4.95;2.22;;;20.30;56.10;;;;;;5047371;28;45189;-72
2022/10/30 03:14:04;;;;;;;3.67;2.08;;;20.30;56.20;;;;;;5046959;28;45618;-72
2022/10/30 03:16:32;;;;;;;3.92;2.13;;;20.20;56.10;;;;;;5046791;28;45380;-72
2022/10/30 03:18:59;;;;;;;3.20;1.92;;;20.20;56.20;;;;;;5046845;28;45108;-72
2022/10/30 03:21:27;;;;;;;4.22;2.10;;;20.20;56.20;;;;;;5047033;28;45269;-72
2022/10/30 03:23:54;;;;;;;3.75;2.28;;;20.20;56.40;;;;;;5046751;28;45458;-72
2022/10/30 03:26:20;;;;;;;2.60;1.80;;;20.20;56.30;;;;;;5046631;28;45427;-72
2022/10/30 03:28:47;;;;;;;4.00;2.28;;;20.20;56.30;;;;;;5046805;28;45293;-72
2022/10/30 03:31:17;;;;;;;3.38;1.90;;;20.10;56.10;;;;;;5047054;28;45181;-72
2022/10/30 03:33:44;;;;;;;2.38;1.95;;;20.10;56.20;;;;;;5046609;28;45273;-71
2022/10/30 03:36:12;;;;;;;3.97;2.00;;;20.10;56.20;;;;;;5046522;28;45300;-71
2022/10/30 03:38:38;;;;;;;2.60;2.03;;;20.10;56.30;;;;;;5047205;28;45438;-71
2022/10/30 03:41:05;;;;;;;2.80;1.95;;;20.10;56.20;;;;;;5050662;28;44699;-71
2022/10/30 03:43:32;;;;;;;5.05;2.50;;;20.10;56.30;;;;;;5050322;28;45395;-71
2022/10/30 03:45:59;;;;;;;3.03;1.88;;;20.00;56.30;;;;;;5049735;28;45348;-70
2022/10/30 03:48:28;;;;;;;2.33;2.13;;;20.00;56.20;;;;;;5049653;28;45367;-71
2022/10/30 03:50:55;;;;;;;3.65;2.25;;;20.00;56.20;;;;;;5050717;28;45186;-71
2022/10/30 03:53:22;;;;;;;3.90;2.13;;;20.00;56.30;;;;;;5049875;28;46403;-71
2022/10/30 03:55:49;;;;;;;4.00;1.73;;;20.00;56.40;;;;;;5049806;28;45194;-71
2022/10/30 03:58:16;;;;;;;4.97;2.45;;;20.00;56.40;;;;;;5049846;28;45254;-71
2022/10/30 04:00:43;;;;;;;4.28;2.67;;;20.00;56.30;;;;;;5050502;28;45282;-70
2022/10/30 04:03:10;;;;;;;3.47;2.00;;;20.00;56.30;;;;;;5049679;28;46490;-71
2022/10/30 04:05:38;;;;;;;3.95;2.25;;;20.00;56.20;;;;;;5049617;28;45251;-71
2022/10/30 04:08:06;;;;;;;3.03;1.92;;;19.90;56.30;;;;;;5049677;28;45333;-71
2022/10/30 04:10:34;;;;;;;3.30;1.83;;;19.90;56.30;;;;;;5050080;28;45234;-71
2022/10/30 04:13:01;;;;;;;3.97;2.20;;;19.90;56.40;;;;;;5049424;28;45536;-71
2022/10/30 04:15:28;;;;;;;2.63;2.10;;;19.80;56.30;;;;;;5049702;28;45249;-71
2022/10/30 04:17:55;;;;;;;3.88;2.00;;;19.80;56.40;;;;;;5049716;28;45324;-71
2022/10/30 04:20:22;;;;;;;3.47;2.00;;;19.90;56.50;;;;;;5049829;28;45265;-71
2022/10/30 04:22:55;;;;;;;3.38;2.13;;;19.90;56.50;;;;;;5049455;28;45426;-70
2022/10/30 04:25:22;;;;;;;2.33;1.90;;;19.80;56.40;;;;;;5049415;28;45288;-71
2022/10/30 04:27:49;;;;;;;4.05;2.08;;;19.80;56.40;;;;;;5049473;28;45309;-71
2022/10/30 04:30:16;;;;;;;2.30;1.90;;;19.80;56.50;;;;;;5049886;28;45393;-71
2022/10/30 04:32:46;;;;;;;4.00;2.00;;;19.80;56.50;;;;;;5048973;28;46676;-71
2022/10/30 04:35:14;;;;;;;2.35;1.80;;;19.80;56.60;;;;;;5048628;28;45261;-71
2022/10/30 04:37:40;;;;;;;3.72;1.95;;;19.70;56.50;;;;;;5049733;28;45321;-71
2022/10/30 04:40:10;;;;;;;4.97;2.20;;;19.70;56.50;;;;;;5049658;28;45289;-71
2022/10/30 04:42:37;;;;;;;2.33;1.90;;;19.70;56.50;;;;;;5049073;28;46490;-70
2022/10/30 04:45:04;;;;;;;3.28;2.05;;;19.70;56.50;;;;;;5051654;28;44909;-70
2022/10/30 04:47:32;;;;;;;3.25;2.30;;;19.70;56.50;;;;;;5053430;28;45262;-70
2022/10/30 04:49:58;;;;;;;4.75;2.30;;;19.70;56.60;;;;;;5049683;28;45380;-70
2022/10/30 04:52:25;;;;;;;3.05;2.13;;;19.70;56.90;;;;;;5046624;28;45261;-71
2022/10/30 04:54:52;;;;;;;2.75;2.10;;;19.70;56.60;;;;;;5049293;28;45372;-72
2022/10/30 04:57:20;;;;;;;2.88;1.92;;;19.60;56.70;;;;;;5049238;28;45297;-71
2022/10/30 04:59:47;;;;;;;2.90;1.83;;;19.60;57.10;;;;;;5049337;28;45178;-72
2022/10/30 05:02:14;;;;;;;4.13;2.40;;;19.60;56.60;;;;;;5048544;28;45201;-71
2022/10/30 05:04:41;;;;;;;2.63;1.95;;;19.60;57.30;;;;;;5048404;28;45327;-71
2022/10/30 05:07:08;;;;;;;5.03;2.00;;;19.50;56.70;;;;;;5048558;28;45308;-70
2022/10/30 05:09:35;;;;;;;2.30;1.95;;;19.50;56.70;;;;;;5049018;28;45295;-71
2022/10/30 05:12:02;;;;;;;3.08;2.10;;;19.60;56.90;;;;;;5048496;28;46709;-71
2022/10/30 05:14:31;;;;;;;3.83;2.22;;;19.50;56.80;;;;;;5048900;28;45263;-71
2022/10/30 05:16:58;;;;;;;2.33;2.05;;;19.50;56.70;;;;;;5048587;28;45319;-71
2022/10/30 05:19:25;;;;;;;2.83;2.10;;;19.50;56.80;;;;;;5049438;28;45463;-71
2022/10/30 05:21:52;;;;;;;2.45;1.83;;;19.50;56.70;;;;;;5047951;28;45655;-71
2022/10/30 05:24:19;;;;;;;3.03;2.00;;;19.50;56.70;;;;;;5048444;28;45200;-71
2022/10/30 05:26:45;;;;;;;3.10;2.13;;;19.50;56.70;;;;;;5048562;28;45321;-71
2022/10/30 05:29:12;;;;;;;3.20;1.95;;;19.50;56.80;;;;;;5048650;28;45384;-71
2022/10/30 05:31:41;;;;;;;2.47;2.20;;;19.40;56.70;;;;;;5048511;28;46368;-71
2022/10/30 05:34:08;;;;;;;2.38;1.65;;;19.50;56.90;;;;;;5048585;28;45268;-71
2022/10/30 05:36:35;;;;;;;4.03;2.28;;;19.50;57.00;;;;;;5048608;28;45242;-71
2022/10/30 05:39:02;;;;;;;3.53;2.05;;;19.40;56.90;;;;;;5048688;28;45369;-71
2022/10/30 05:41:28;;;;;;;2.40;1.80;;;19.40;56.70;;;;;;5048008;28;46346;-71
2022/10/30 05:43:56;;;;;;;3.88;2.00;;;19.40;56.70;;;;;;5048063;28;45320;-71
2022/10/30 05:46:22;;;;;;;2.20;2.00;;;19.40;56.90;;;;;;5048082;28;45288;-71
2022/10/30 05:48:51;;;;;;;3.40;2.30;;;19.40;56.90;;;;;;5048359;28;45235;-71
2022/10/30 05:51:18;;;;;;;2.38;1.92;;;19.40;56.80;;;;;;5048119;28;45303;-71
2022/10/30 05:53:44;;;;;;;3.80;2.17;;;19.30;56.80;;;;;;5047728;28;45376;-71
2022/10/30 05:56:11;;;;;;;3.05;2.25;;;19.30;56.80;;;;;;5048102;28;45282;-70
2022/10/30 05:58:38;;;;;;;3.33;1.83;;;19.30;56.90;;;;;;5048225;28;45237;-71
2022/10/30 06:01:06;;;;;;;2.67;1.80;;;19.30;56.80;;;;;;5047773;28;46669;-71
2022/10/30 06:03:33;;;;;;;3.08;2.08;;;19.30;57.00;;;;;;5047205;28;45352;-71
2022/10/30 06:06:02;;;;;;;2.45;1.90;;;19.30;57.10;;;;;;5047291;28;45295;-71
2022/10/30 06:08:28;;;;;;;3.85;1.95;;;19.30;57.00;;;;;;5047928;28;45257;-71
2022/10/30 06:10:55;;;;;;;3.35;2.20;;;19.20;56.90;;;;;;5047641;28;46447;-71
2022/10/30 06:13:22;;;;;;;2.55;1.90;;;19.20;57.10;;;;;;5047646;28;45253;-71
2022/10/30 06:15:49;;;;;;;2.58;1.92;;;19.20;57.10;;;;;;5047843;28;45279;-71
2022/10/30 06:18:16;;;;;;;3.78;1.92;;;19.20;56.90;;;;;;5048207;28;45404;-71
2022/10/30 06:20:42;;;;;;;4.55;2.13;;;19.20;57.10;;;;;;5047817;28;46409;-71
2022/10/30 06:23:11;;;;;;;3.28;1.90;;;19.20;57.00;;;;;;5047485;28;45193;-71
2022/10/30 06:25:38;;;;;;;2.67;2.30;;;19.20;57.00;;;;;;5047592;28;45305;-71
2022/10/30 06:28:05;;;;;;;3.00;2.05;;;19.20;57.10;;;;;;5047730;28;45321;-71
2022/10/30 06:30:32;;;;;;;3.70;1.90;;;19.20;57.20;;;;;;5047476;28;46382;-71
2022/10/30 06:32:59;;;;;;;3.45;2.15;;;19.20;57.10;;;;;;5047663;28;45241;-71
2022/10/30 06:35:26;;;;;;;4.53;2.42;;;19.20;57.00;;;;;;5047571;28;45200;-71
2022/10/30 06:37:54;;;;;;;4.07;2.30;;;19.10;57.60;;;;;;5047903;28;45271;-71
2022/10/30 06:40:22;;;;;;;5.05;2.28;;;19.20;57.10;;;;;;5047848;28;45238;-71
2022/10/30 06:42:51;;;;;;;3.80;2.35;;;19.20;57.10;;;;;;5048304;28;45252;-71
2022/10/30 06:45:19;;;;;;;2.67;2.17;;;19.20;57.00;;;;;;5047433;28;45286;-71
2022/10/30 06:47:46;;;;;;;2.70;1.95;;;19.20;57.10;;;;;;5047451;28;45412;-70
2022/10/30 06:50:14;;;;;;;3.58;1.90;;;19.20;57.00;;;;;;5046258;28;45294;-71
2022/10/30 06:52:41;;;;;;;4.03;2.20;;;19.20;56.90;;;;;;5046938;28;45231;-71
2022/10/30 06:55:08;;;;;;;2.85;1.90;;;19.10;57.00;;;;;;5047309;28;45296;-70
2022/10/30 06:57:37;;;;;;;3.97;2.25;;;19.20;57.00;;;;;;5047485;28;45285;-70
2022/10/30 07:00:04;;;;;;;2.80;2.30;;;19.10;57.10;;;;;;5046967;28;46720;-71
2022/10/30 07:02:31;;;;;;;3.33;2.10;;;19.20;57.00;;;;;;5047303;28;45286;-70
2022/10/30 07:04:58;;;;;;;3.50;1.80;;;19.20;57.00;;;;;;5046896;28;45358;-70
2022/10/30 07:07:25;;;;;;;4.97;2.33;;;19.20;57.00;;;;;;5046882;28;45491;-71
2022/10/30 07:09:52;;;;;;;4.78;2.13;;;19.20;57.00;;;;;;5046540;28;45249;-70
2022/10/30 07:12:18;;;;;;;2.35;2.08;;;19.20;56.90;;;;;;5046716;28;45265;-70
2022/10/30 07:14:47;;;;;;;2.95;2.00;;;19.20;57.00;;;;;;5045956;28;45249;-70
2022/10/30 07:17:13;;;;;;;3.05;2.25;;;19.20;57.00;;;;;;5047021;28;45285;-70
2022/10/30 07:19:41;;;;;;;2.35;2.00;;;19.10;56.90;;;;;;5046805;28;46381;-70
2022/10/30 07:22:07;;;;;;;4.45;2.05;;;19.10;57.00;;;;;;5046705;28;45202;-70
2022/10/30 07:24:34;;;;;;;3.33;2.10;;;19.10;57.10;;;;;;5046906;28;45256;-71
2022/10/30 07:27:01;;;;;;;6.10;2.10;;;19.10;57.00;;;;;;5046795;28;45542;-71
2022/10/30 07:29:28;;;;;;;2.65;1.92;;;19.10;57.00;;;;;;5046523;28;46389;-71
2022/10/30 07:31:56;;;;;;;3.15;1.98;;;19.20;57.00;;;;;;5046559;28;45423;-70
2022/10/30 07:34:23;;;;;;;3.10;2.20;;;19.20;57.10;;;;;;5045733;28;45273;-71
2022/10/30 07:36:50;;;;;;;3.38;2.05;;;19.10;57.00;;;;;;5046592;28;45304;-73
2022/10/30 07:39:17;;;;;;;3.35;2.17;;;19.20;57.00;;;;;;5046323;28;46688;-71
2022/10/30 07:41:44;;;;;;;2.97;2.17;;;19.20;56.90;;;;;;5046370;28;45394;-71
2022/10/30 07:44:11;;;;;;;2.55;1.92;;;19.20;57.00;;;;;;5046491;28;45246;-71
2022/10/30 07:46:38;;;;;;;4.18;2.42;;;19.20;57.00;;;;;;5046663;28;45257;-71
2022/10/30 07:49:06;;;;;;;5.45;2.83;;;19.20;57.00;;;;;;5046404;28;46575;-71
2022/10/30 07:51:33;;;;;;;2.45;1.90;;;19.20;57.00;;;;;;5046351;28;45324;-71
2022/10/30 07:54:00;;;;;;;3.88;2.55;;;19.20;56.90;;;;;;5046345;28;45305;-70
2022/10/30 07:56:26;;;;;;;3.35;2.20;;;19.20;57.00;;;;;;5046622;28;45400;-70
2022/10/30 07:58:53;;;;;;;2.97;2.30;;;19.20;57.00;;;;;;5045977;28;45210;-70
2022/10/30 08:01:20;;;;;;;3.58;2.08;;;19.20;57.00;;;;;;5045963;28;45256;-70
2022/10/30 08:03:47;;;;;;;3.00;2.28;;;19.20;56.90;;;;;;5046255;28;45248;-71
2022/10/30 08:06:15;;;;;;;3.40;2.22;;;19.20;56.90;;;;;;5026342;28;45580;-71
2022/10/30 08:08:42;;;;;;;5.60;2.50;;;19.20;57.00;;;;;;5025879;28;46439;-70
2022/10/30 08:11:09;;;;;;;4.35;2.28;;;19.20;57.10;;;;;;5026031;28;45203;-70
2022/10/30 08:13:36;;;;;;;3.10;2.53;;;19.20;57.00;;;;;;5026482;28;45272;-70
2022/10/30 08:16:03;;;;;;;2.67;2.03;;;19.20;57.00;;;;;;5026229;28;45312;-71
2022/10/30 08:18:29;;;;;;;3.42;2.47;;;19.20;57.10;;;;;;5025233;28;46353;-71
2022/10/30 08:20:56;;;;;;;3.65;2.35;;;19.20;57.00;;;;;;5025930;28;45265;-70
2022/10/30 08:23:25;;;;;;;4.13;2.30;;;19.20;57.00;;;;;;5025989;28;45259;-70
2022/10/30 08:25:51;;;;;;;2.42;2.05;;;19.20;57.10;;;;;;5028207;28;45609;-70
2022/10/30 08:28:18;;;;;;;2.97;2.20;;;19.20;57.00;;;;;;5039904;28;47341;-70
2022/10/30 08:30:45;;;;;;;3.53;2.30;;;19.20;57.00;;;;;;5049367;28;45296;-70
2022/10/30 08:33:13;;;;;;;3.13;1.95;;;19.20;57.00;;;;;;5049416;28;45211;-70
2022/10/30 08:35:47;;;;;;;4.15;2.58;;;19.20;57.00;;;;;;5049712;28;45180;-70
2022/10/30 08:38:14;;;;;;;2.97;2.00;;;19.20;57.00;;;;;;5049214;28;45357;-71
2022/10/30 08:40:42;;;;;;;3.33;2.30;;;19.30;57.00;;;;;;5049072;28;45244;-71
2022/10/30 08:43:09;;;;;;;3.55;2.33;;;19.20;57.00;;;;;;5049209;28;45357;-70
2022/10/30 08:45:36;;;;;;;2.60;2.20;;;19.30;57.00;;;;;;5049447;28;45451;-70
2022/10/30 08:48:04;;;;;;;3.55;1.90;;;19.30;57.00;;;;;;5048601;28;46748;-70
2022/10/30 08:50:31;;;;;;;4.00;2.50;;;19.30;56.90;;;;;;5049025;28;45264;-70
2022/10/30 08:53:00;;;;;;;2.85;2.30;;;19.30;57.00;;;;;;5048957;28;45321;-70
2022/10/30 08:55:27;;;;;;;4.05;2.17;;;19.30;57.00;;;;;;5049558;28;45269;-70
2022/10/30 08:57:55;;;;;;;3.20;2.38;;;19.30;57.00;;;;;;5048697;28;45489;-70
2022/10/30 09:00:22;;;;;;;4.45;2.40;;;19.30;57.00;;;;;;5048964;28;45269;-70
2022/10/30 09:02:49;;;;;;;5.45;2.22;;;19.30;57.10;;;;;;5048972;28;45291;-70
2022/10/30 09:05:16;;;;;;;3.95;2.15;;;19.30;57.00;;;;;;5048236;28;45246;-69
2022/10/30 09:07:43;;;;;;;3.92;2.15;;;19.30;57.00;;;;;;5047702;28;45219;-70
2022/10/30 09:10:10;;;;;;;2.35;2.15;;;19.30;57.00;;;;;;5048782;28;45317;-70
2022/10/30 09:12:37;;;;;;;3.35;2.35;;;19.30;57.00;;;;;;5048584;28;45246;-70
2022/10/30 09:15:06;;;;;;;3.35;2.10;;;19.40;57.10;;;;;;5048939;28;45476;-70
2022/10/30 09:17:33;;;;;;;4.15;2.30;;;19.40;57.10;;;;;;5048182;28;45261;-70
2022/10/30 09:20:00;;;;;;;2.22;2.03;;;19.40;57.10;;;;;;5048550;28;45233;-70
2022/10/30 09:22:27;;;;;;;4.97;2.13;;;19.40;57.00;;;;;;5048885;28;45189;-70
2022/10/30 09:24:54;;;;;;;2.33;1.88;;;19.50;57.00;;;;;;5048761;28;45308;-70
2022/10/30 09:27:26;;;;;;;2.25;2.05;;;19.50;57.00;;;;;;5048243;28;47304;-72
2022/10/30 09:29:53;;;;;;;2.67;2.08;;;19.50;56.90;;;;;;5048242;28;45249;-70
2022/10/30 09:32:21;;;;;;;3.28;2.13;;;19.50;56.90;;;;;;5048584;28;45366;-71
2022/10/30 09:34:48;;;;;;;2.72;2.10;;;19.60;56.90;;;;;;5048519;28;45386;-72
2022/10/30 09:37:15;;;;;;;3.08;2.20;;;19.60;56.80;;;;;;5047257;28;46266;-70
2022/10/30 09:39:42;;;;;;;2.60;2.05;;;19.60;56.80;;;;;;5048159;28;45305;-70
2022/10/30 09:42:22;;;;;;;2.67;2.03;;;19.60;56.80;;;;;;5048365;28;45273;-70
2022/10/30 09:44:54;;;;;;;4.80;2.55;;;19.70;56.80;;;;;;5048800;28;45356;-71
2022/10/30 09:47:26;;;;;;;2.70;2.17;;;19.70;56.80;;;;;;5045495;28;45384;-71
2022/10/30 09:50:09;;;;;;;3.47;2.25;;;19.70;56.80;;;;;;5048154;28;45190;-70
2022/10/30 09:52:38;;;;;;;3.45;2.20;;;19.80;57.00;;;;;;5048153;28;45183;-71
2022/10/30 09:55:20;;;;;;;4.28;2.50;;;19.80;56.80;;;;;;5048324;28;45349;-71
2022/10/30 09:57:50;;;;;;;3.00;2.00;;;19.80;56.80;;;;;;5048210;28;45546;-70
2022/10/30 10:00:18;;;;;;;2.80;2.40;;;19.90;56.70;;;;;;5047939;28;45310;-71
2022/10/30 10:03:04;;;;;;;4.53;2.38;;;19.90;56.70;;;;;;5048399;28;45352;-71
2022/10/30 10:05:35;;;;;;;2.33;1.90;;;19.90;57.30;;;;;;5048187;28;45229;-71
2022/10/30 10:08:04;;;;;;;1.80;1.70;;;20.00;56.70;;;;;;5047408;28;46418;-70
2022/10/30 10:10:36;;;;;;;2.38;1.80;;;20.00;56.60;;;;;;5047863;28;45247;-71
2022/10/30 10:13:02;;;;;;;2.45;2.15;;;20.00;56.50;;;;;;5047948;28;45265;-70
2022/10/30 10:15:37;;;;;;;3.17;2.28;;;20.10;56.90;;;;;;5047955;28;45205;-71
2022/10/30 10:18:07;;;;;;;4.85;2.20;;;20.10;56.70;;;;;;5047439;28;45424;-71
2022/10/30 10:20:36;;;;;;;4.55;2.30;;;20.20;57.10;;;;;;5046914;28;45150;-70
2022/10/30 10:23:06;;;;;;;3.20;1.90;;;20.20;56.70;;;;;;5048128;28;45292;-72
2022/10/30 10:25:33;;;;;;;3.30;2.00;;;20.20;56.40;;;;;;5046871;28;45185;-71
2022/10/30 10:28:07;;;;;;;3.55;2.35;;;20.30;56.20;;;;;;5047599;28;47424;-71
2022/10/30 10:30:39;;;;;;;3.63;2.20;;;20.30;56.20;;;;;;5044467;28;45392;-70
2022/10/30 10:33:30;;;;;;;4.38;2.33;;;20.40;56.50;;;;;;5046249;28;45190;-71
2022/10/30 10:36:05;;;;;;;3.45;2.20;;;20.40;56.80;;;;;;5039648;28;45366;-70
2022/10/30 10:38:56;;;;;;;6.32;2.40;;;20.40;56.40;;;;;;5047473;28;45332;-72
2022/10/30 10:41:28;;;;;;;5.63;2.40;;;20.50;56.50;;;;;;5047067;28;45197;-70
2022/10/30 10:44:00;;;;;;;3.83;2.40;;;20.60;56.80;;;;;;5046595;28;45124;-70
2022/10/30 10:46:36;;;;;;;5.70;2.63;;;20.60;57.00;;;;;;5046466;28;45265;-70
2022/10/30 10:49:14;;;;;;;3.95;2.67;;;20.70;57.10;;;;;;5046460;28;46402;-71
2022/10/30 10:51:43;;;;;;;3.50;2.30;;;20.70;57.50;;;;;;5046610;28;45262;-71
2022/10/30 10:54:12;;;;;;;6.68;2.90;;;20.80;57.50;;;;;;5047175;28;45304;-71
2022/10/30 10:56:40;;;;;;;6.13;2.63;;;20.90;57.70;;;;;;5047061;28;45447;-71
2022/10/30 10:59:13;;;;;;;6.20;2.65;;;20.90;57.70;;;;;;5047037;28;46351;-71
2022/10/30 11:01:42;;;;;;;4.22;2.80;;;20.90;57.70;;;;;;5047180;28;45237;-71
2022/10/30 11:04:14;;;;;;;2.40;2.20;;;21.00;57.80;;;;;;5047420;28;45198;-71
2022/10/30 11:06:42;;;;;;;3.55;2.92;;;21.00;57.90;;;;;;5047089;28;45593;-71
2022/10/30 11:09:16;;;;;;;3.97;2.63;;;21.00;57.90;;;;;;5047807;28;46373;-71
2022/10/30 11:11:43;;;;;;;6.38;2.70;;;21.00;58.10;;;;;;5047251;28;45282;-71
2022/10/30 11:14:13;;;;;;;4.93;2.63;;;21.10;58.20;;;;;;5047314;28;45210;-71
2022/10/30 11:16:58;;;;;;;5.45;3.20;;;21.10;58.30;;;;;;5047339;28;45229;-70
2022/10/30 11:19:26;;;;;;;5.65;2.58;;;21.10;58.30;;;;;;5043974;28;45246;-73
2022/10/30 11:21:53;;;;;;;5.40;2.88;;;21.10;58.30;;;;;;5046923;28;45282;-71
2022/10/30 11:24:28;;;;;;;7.50;3.15;;;21.10;58.00;;;;;;5046746;28;45260;-71
2022/10/30 11:26:56;;;;;;;7.65;2.72;;;21.10;57.90;;;;;;5046992;28;45535;-71
2022/10/30 11:29:24;;;;;;;5.82;3.20;;;21.10;58.10;;;;;;5046449;28;45372;-71
2022/10/30 11:32:00;;;;;;;5.22;2.70;;;21.10;58.10;;;;;;5046752;28;45225;-71
2022/10/30 11:34:35;;;;;;;4.53;2.97;;;21.10;58.20;;;;;;5046309;28;45194;-71
2022/10/30 11:37:02;;;;;;;5.05;2.70;;;21.10;58.30;;;;;;5026868;28;45545;-71
2022/10/30 11:39:30;;;;;;;5.20;2.80;;;21.10;58.30;;;;;;5026464;28;45268;-71
2022/10/30 11:42:00;;;;;;;5.55;2.80;;;21.10;58.20;;;;;;5026304;28;45246;-71
2022/10/30 11:44:29;;;;;;;3.75;2.67;;;21.10;58.20;;;;;;5026289;28;45258;-70
2022/10/30 11:46:56;;;;;;;5.63;2.50;;;21.20;58.20;;;;;;5026929;28;45334;-71
2022/10/30 11:49:27;;;;;;;6.45;2.90;;;21.20;58.10;;;;;;5026291;28;46496;-72
2022/10/30 11:51:55;;;;;;;3.40;2.58;;;21.20;58.00;;;;;;5026499;28;45214;-71
2022/10/30 11:54:22;;;;;;;4.18;2.38;;;21.20;58.00;;;;;;5026382;28;45146;-71
2022/10/30 11:56:49;;;;;;;3.53;2.40;;;21.30;58.00;;;;;;5026431;28;45357;-71
2022/10/30 11:59:19;;;;;;;3.00;2.35;;;21.30;57.90;;;;;;5026059;28;46374;-70
2022/10/30 12:01:58;;;;;;;4.25;2.47;;;21.30;57.90;;;;;;5029040;28;45418;-71
2022/10/30 12:04:26;;;;;;;5.75;2.42;;;21.30;57.80;;;;;;5050200;28;45479;-71
2022/10/30 12:07:06;;;;;;;6.38;2.40;;;21.30;57.70;;;;;;5049400;28;45537;-71
2022/10/30 12:09:38;;;;;;;3.05;2.13;;;21.40;58.60;;;;;;5048742;28;46377;-72
2022/10/30 12:12:10;;;;;;;5.00;2.47;;;21.50;58.00;;;;;;5068589;28;45200;-71
2022/10/30 12:14:37;;;;;;;7.47;2.70;;;21.50;58.10;;;;;;5069851;28;45192;-71
2022/10/30 12:17:04;;;;;;;7.90;2.85;;;21.60;58.10;;;;;;5055909;28;45258;-71
2022/10/30 12:19:31;;;;;;;6.38;3.00;;;21.60;58.10;;;;;;5063930;28;46390;-72
2022/10/30 12:22:00;;;;;;;5.18;2.80;;;21.70;58.20;;;;;;5066275;28;45397;-71
2022/10/30 12:24:30;;;;;;;5.05;2.50;;;21.70;58.20;;;;;;5049555;28;45194;-71
2022/10/30 12:26:57;;;;;;;5.00;3.05;;;21.70;58.80;;;;;;5049698;28;45308;-71
2022/10/30 12:29:27;;;;;;;13.88;2.80;;;21.80;58.20;;;;;;5049277;28;45473;-71
2022/10/30 12:31:55;;;;;;;7.45;3.05;;;21.90;58.70;;;;;;5053486;28;45244;-73
2022/10/30 12:34:29;;;;;;;9.73;3.20;;;22.00;57.70;;;;;;5049690;28;45466;-73
2022/10/30 12:37:00;;;;;;;7.18;2.95;;;22.00;57.80;;;;;;5050357;28;45384;-73
2022/10/30 12:39:30;;;;;;;5.45;2.90;;;22.00;57.70;;;;;;5049130;28;46747;-75
2022/10/30 12:41:59;;;;;;;8.60;3.97;;;22.00;57.50;;;;;;5049350;28;45296;-76
2022/10/30 12:44:27;;;;;;;7.35;3.85;;;22.00;57.70;;;;;;5049383;28;45318;-76
2022/10/30 12:46:55;;;;;;;7.30;4.30;;;22.10;57.80;;;;;;5049520;28;45214;-76
2022/10/30 12:49:23;;;;;;;8.40;4.63;;;22.10;57.80;;;;;;5048832;28;45488;-75
2022/10/30 12:51:54;;;;;;;8.30;4.82;;;22.10;57.80;;;;;;5048504;28;45448;-73
2022/10/30 12:54:25;;;;;;;7.55;4.75;;;22.20;57.90;;;;;;5048881;28;45424;-73